createdAt,value
2019-04-01T00:00:42.131Z,13.60
2019-04-01T00:05:47.712Z,12.53
2019-04-01T00:10:52.763Z,14.17
2019-04-01T00:15:57.582Z,12.83
2019-04-01T00:21:02.556Z,13.83
2019-04-01T00:26:07.377Z,18.57
2019-04-01T00:31:12.140Z,19.70
2019-04-01T00:36:17.090Z,22.67
2019-04-01T00:41:21.829Z,19.37
2019-04-01T00:46:27.162Z,16.80
2019-04-01T00:51:32.011Z,16.83
2019-04-01T00:56:36.977Z,14.50
2019-04-01T01:01:41.733Z,17.27
2019-04-01T01:06:46.767Z,15.00
2019-04-01T01:11:51.510Z,16.17
2019-04-01T01:16:56.162Z,16.97
2019-04-01T01:22:00.970Z,16.93
2019-04-01T01:27:06.044Z,17.03
2019-04-01T01:32:10.786Z,14.63
2019-04-01T01:37:15.528Z,16.93
2019-04-01T01:42:20.347Z,14.60
2019-04-01T01:47:25.092Z,14.20
2019-04-01T01:52:30.061Z,14.33
2019-04-01T01:57:35.109Z,15.33
2019-04-01T02:02:39.852Z,13.73
2019-04-01T02:07:44.903Z,14.67
2019-04-01T02:12:49.952Z,15.50
2019-04-01T02:17:55.002Z,13.53
2019-04-01T02:23:00.049Z,12.93
2019-04-01T02:28:04.792Z,15.37
2019-04-01T02:33:09.534Z,13.40
2019-04-01T02:38:14.283Z,10.17
2019-04-01T02:43:19.326Z,15.30
2019-04-01T02:48:24.068Z,14.60
2019-04-01T02:53:28.810Z,15.10
2019-04-01T02:58:33.860Z,10.80
2019-04-01T03:03:38.602Z,13.90
2019-04-01T03:08:43.652Z,14.43
2019-04-01T03:13:48.698Z,11.77
2019-04-01T03:18:53.452Z,9.97
2019-04-01T03:23:58.265Z,9.57
2019-04-01T03:29:03.004Z,10.13
2019-04-01T03:34:07.975Z,14.10
2019-04-01T03:39:13.946Z,20.73
2019-04-01T03:44:18.663Z,11.23
2019-04-01T03:49:24.024Z,17.40
2019-04-01T03:54:28.788Z,15.20
2019-04-01T03:59:33.606Z,28.03
2019-04-01T04:04:38.579Z,30.13
2019-04-01T04:09:43.320Z,16.13
2019-04-01T04:14:51.215Z,15.53
2019-04-01T04:19:54.647Z,14.00
2019-04-01T04:24:59.468Z,17.23
2019-04-01T04:30:06.592Z,18.43
2019-04-01T04:35:11.963Z,16.20
2019-04-01T04:40:16.790Z,29.93
2019-04-01T04:45:21.740Z,34.27
2019-04-01T04:50:26.479Z,36.97
2019-04-01T04:55:31.203Z,37.23
2019-04-01T05:00:35.962Z,53.43
2019-04-01T05:05:41.632Z,39.57
2019-04-01T05:10:46.675Z,32.80
2019-04-01T05:15:51.518Z,21.77
2019-04-01T05:20:58.616Z,18.93
2019-04-01T05:26:04.103Z,13.55
2019-04-01T05:31:14.374Z,10.57
2019-04-01T05:36:19.294Z,9.73
2019-04-01T05:41:24.343Z,13.13
2019-04-01T05:46:30.501Z,15.80
2019-04-01T05:51:37.288Z,22.32
2019-04-01T05:56:42.256Z,22.13
2019-04-01T06:01:48.743Z,24.45
2019-04-01T06:06:54.503Z,20.97
2019-04-01T06:11:59.553Z,16.27
2019-04-01T06:17:04.609Z,12.80
2019-04-01T06:22:09.651Z,10.88
2019-04-01T06:27:15.053Z,11.18
2019-04-01T06:32:20.367Z,10.23
2019-04-01T06:37:25.084Z,12.07
2019-04-01T06:42:29.929Z,10.10
2019-04-01T06:47:34.897Z,10.70
2019-04-01T06:52:39.923Z,8.75
2019-04-01T06:57:44.766Z,8.58
2019-04-01T07:02:49.757Z,7.17
2019-04-01T07:07:54.891Z,6.78
2019-04-01T07:12:59.713Z,5.80
2019-04-01T07:18:04.763Z,7.33
2019-04-01T07:23:09.939Z,10.32
2019-04-01T07:28:14.677Z,5.97
2019-04-01T07:33:19.398Z,3.80
2019-04-01T07:38:24.470Z,6.65
2019-04-01T07:43:30.524Z,4.22
2019-04-01T07:48:35.797Z,3.15
2019-04-01T07:53:40.620Z,1.90
2019-04-01T07:58:45.587Z,3.72
2019-04-01T08:03:51.565Z,3.40
2019-04-01T08:08:56.304Z,3.30
2019-04-01T08:14:01.358Z,3.83
2019-04-01T08:19:06.378Z,1.98
2019-04-01T08:24:11.452Z,3.98
2019-04-01T08:29:30.085Z,7.17
2019-04-01T08:34:27.090Z,1.10
2019-04-01T08:39:32.614Z,86.45
2019-04-01T08:44:37.463Z,1.17
2019-04-01T08:49:42.228Z,2.37
2019-04-01T08:54:46.942Z,1.60
2019-04-01T08:59:52.027Z,1.37
2019-04-01T09:04:57.553Z,0.93
2019-04-01T09:10:02.879Z,1.87
2019-04-01T09:15:08.086Z,2.58
2019-04-01T09:20:13.450Z,2.30
2019-04-01T09:25:18.158Z,1.42
2019-04-01T09:30:24.156Z,0.75
2019-04-01T09:35:29.217Z,1.30
2019-04-01T09:40:34.536Z,1.30
2019-04-01T09:45:39.617Z,2.10
2019-04-01T09:50:44.327Z,2.20
2019-04-01T09:55:50.617Z,1.40
2019-04-01T10:00:55.680Z,1.20
2019-04-01T10:06:00.807Z,1.45
2019-04-01T10:11:06.983Z,1.32
2019-04-01T10:16:12.056Z,1.17
2019-04-01T10:21:17.106Z,1.00
2019-04-01T10:26:22.163Z,1.30
2019-04-01T10:31:26.979Z,1.00
2019-04-01T10:36:31.950Z,1.22
2019-04-01T10:41:36.997Z,0.78
2019-04-01T10:46:41.918Z,0.98
2019-04-01T10:51:46.875Z,1.10
2019-04-01T10:56:51.638Z,2.20
2019-04-01T11:01:56.673Z,2.17
2019-04-01T11:07:01.681Z,0.78
2019-04-01T11:12:06.920Z,3.47
2019-04-01T11:17:11.731Z,2.05
2019-04-01T11:22:16.471Z,1.00
2019-04-01T11:27:21.211Z,0.80
2019-04-01T11:32:26.004Z,1.05
2019-04-01T11:37:31.028Z,1.90
2019-04-01T11:42:40.036Z,0.70
2019-04-01T11:47:42.674Z,5.80
2019-04-01T11:52:47.686Z,0.88
2019-04-01T11:57:52.488Z,1.65
2019-04-01T12:02:57.478Z,0.80
2019-04-01T12:08:02.528Z,1.17
2019-04-01T12:13:07.354Z,1.80
2019-04-01T12:18:12.324Z,0.60
2019-04-01T12:23:17.367Z,1.65
2019-04-01T12:28:22.109Z,0.68
2019-04-01T12:33:27.775Z,1.10
2019-04-01T12:38:32.520Z,0.82
2019-04-01T12:43:37.878Z,0.90
2019-04-01T12:48:42.613Z,0.70
2019-04-01T12:53:47.638Z,0.70
2019-04-01T12:58:52.482Z,0.70
2019-04-01T13:03:57.575Z,1.50
2019-04-01T13:09:02.390Z,0.60
2019-04-01T13:14:09.401Z,1.10
2019-04-01T13:19:15.910Z,1.57
2019-04-01T13:24:21.338Z,0.68
2019-04-01T13:29:26.390Z,2.65
2019-04-01T13:34:31.128Z,1.20
2019-04-01T13:39:35.846Z,0.75
2019-04-01T13:44:40.590Z,1.70
2019-04-01T13:49:45.366Z,0.95
2019-04-01T13:54:50.120Z,1.17
2019-04-01T13:59:54.846Z,0.95
2019-04-01T14:04:59.668Z,6.35
2019-04-01T14:10:07.124Z,1.07
2019-04-01T14:15:12.342Z,1.05
2019-04-01T14:20:18.111Z,0.80
2019-04-01T14:25:23.030Z,0.80
2019-04-01T14:30:27.910Z,1.02
2019-04-01T14:35:32.617Z,0.95
2019-04-01T14:40:37.365Z,0.60
2019-04-01T14:45:42.739Z,0.70
2019-04-01T14:50:47.484Z,1.12
2019-04-01T14:55:52.227Z,0.72
2019-04-01T15:00:57.273Z,1.00
2019-04-01T15:06:02.115Z,3.30
2019-04-01T15:11:06.859Z,0.75
2019-04-01T15:16:12.749Z,1.10
2019-04-01T15:21:17.789Z,1.10
2019-04-01T15:26:22.826Z,2.17
2019-04-01T15:31:27.573Z,0.80
2019-04-01T15:36:32.617Z,0.80
2019-04-01T15:41:37.370Z,0.95
2019-04-01T15:46:42.408Z,1.20
2019-04-01T15:51:47.467Z,3.70
2019-04-01T15:56:52.324Z,0.65
2019-04-01T16:01:57.321Z,0.85
2019-04-01T16:07:02.863Z,0.90
2019-04-01T16:12:07.963Z,1.00
2019-04-01T16:17:12.806Z,1.00
2019-04-01T16:22:18.683Z,0.85
2019-04-01T16:27:23.734Z,11.12
2019-04-01T16:32:29.367Z,64.80
2019-04-01T16:37:34.496Z,148.15
2019-04-01T16:42:39.792Z,153.05
2019-04-01T16:47:44.621Z,163.20
2019-04-01T16:52:49.561Z,76.75
2019-04-01T16:57:54.636Z,32.63
2019-04-01T17:02:59.682Z,33.45
2019-04-01T17:08:04.516Z,37.20
2019-04-01T17:13:09.253Z,40.05
2019-04-01T17:18:14.215Z,17.87
2019-04-01T17:23:18.958Z,12.28
2019-04-01T17:28:24.009Z,20.62
2019-04-01T17:33:29.066Z,184.67
2019-04-01T17:38:34.106Z,10.10
2019-04-01T17:43:39.768Z,6.00
2019-04-01T17:48:44.511Z,4.40
2019-04-01T17:53:50.836Z,4.20
2019-04-01T17:58:55.838Z,7.25
2019-04-01T18:04:02.290Z,21.95
2019-04-01T18:09:08.595Z,18.02
2019-04-01T18:14:13.762Z,4.85
2019-04-01T18:19:20.029Z,5.03
2019-04-01T18:24:25.078Z,39.65
2019-04-01T18:29:29.819Z,36.42
2019-04-01T18:34:34.537Z,20.37
2019-04-01T18:39:47.958Z,32.93
2019-04-01T18:44:47.429Z,21.55
2019-04-01T18:49:52.247Z,5.53
2019-04-01T18:54:56.993Z,5.62
2019-04-01T19:00:01.731Z,16.20
2019-04-01T19:05:06.904Z,6.25
2019-04-01T19:10:12.143Z,9.20
2019-04-01T19:15:17.112Z,6.65
2019-04-01T19:20:22.163Z,7.35
2019-04-01T19:25:27.206Z,7.10
2019-04-01T19:30:32.236Z,26.87
2019-04-01T19:35:37.174Z,7.30
2019-04-01T19:40:42.044Z,8.55
2019-04-01T19:45:50.650Z,12.78
2019-04-01T19:50:55.522Z,11.10
2019-04-01T19:56:00.571Z,9.37
2019-04-01T20:01:05.495Z,9.83
2019-04-01T20:06:10.345Z,11.57
2019-04-01T20:11:15.748Z,10.80
2019-04-01T20:16:20.859Z,11.20
2019-04-01T20:21:25.829Z,15.10
2019-04-01T20:26:30.878Z,13.80
2019-04-01T20:31:35.692Z,10.30
2019-04-01T20:36:40.640Z,14.37
2019-04-01T20:41:45.401Z,13.20
2019-04-01T20:46:50.145Z,13.13
2019-04-01T20:51:55.191Z,16.73
2019-04-01T20:57:00.010Z,24.00
2019-04-01T21:02:04.982Z,17.17
2019-04-01T21:07:10.129Z,13.70
2019-04-01T21:12:15.389Z,14.93
2019-04-01T21:17:20.436Z,16.17
2019-04-01T21:22:25.282Z,14.70
2019-04-01T21:27:30.228Z,13.57
2019-04-01T21:32:35.048Z,13.60
2019-04-01T21:37:40.035Z,11.73
2019-04-01T21:42:45.380Z,11.73
2019-04-01T21:47:50.194Z,12.03
2019-04-01T21:52:55.171Z,13.60
2019-04-01T21:57:59.914Z,10.70
2019-04-01T22:03:04.960Z,10.10
2019-04-01T22:08:10.942Z,10.33
2019-04-01T22:13:20.622Z,11.77
2019-04-01T22:18:25.617Z,10.53
2019-04-01T22:23:30.467Z,8.93
2019-04-01T22:28:35.427Z,9.97
2019-04-01T22:33:40.652Z,9.03
2019-04-01T22:38:45.508Z,11.40
2019-04-01T22:43:50.349Z,11.10
2019-04-01T22:48:55.232Z,10.17
2019-04-01T22:54:00.070Z,9.83
2019-04-01T22:59:04.800Z,9.87
2019-04-01T23:04:09.666Z,8.97
2019-04-01T23:09:14.602Z,9.67
2019-04-01T23:14:19.410Z,9.70
2019-04-01T23:19:24.392Z,9.90
2019-04-01T23:24:29.438Z,10.47
2019-04-01T23:29:34.483Z,9.83
2019-04-01T23:34:39.225Z,9.10
2019-04-01T23:39:43.948Z,9.37
2019-04-01T23:44:51.289Z,8.83
2019-04-01T23:49:57.443Z,10.30
2019-04-01T23:55:02.188Z,9.73
